Domov               UVHVVR             MKGP            O straneh              
ZDRAVSTVENO VARSTVO RASTLIN
  MREŽA AGROMET. POSTAJ
 ► PROGNOSTIČNA OBVESTILA
AGROMETEOROLOŠKI PODATKI -
ARSO
OBVLADOVANJE TVEGANJ ZARADI
NEUGODNIH VREMENSKIH RAZMER
  ► NARAVNE NESREČE
  ► SUŠA/MOČA
  ► NAMAKANJE
  ► ŽLED (gozdarstvo)
KARTOGRAFSKI PRIKAZI
SPLETNE POVEZAVE
PROJEKTI IN PUBLIKACIJE

AGROMETEOROLOŠKA MREŽA: VREMENSKE POSTAJE IN FENOLOŠKA OPAZOVANJA

Pregled podatkov za lokacijo Lendava, meteorološka postaja 42840

Pregled senzorjev na lokaciji

ID Ime Zadnja
vrednost
Datum
zadnje
spremembe
Tip
senzorja
2103 Omočenost lista (U) 0 U 23.3.2019 11:00 A730WET
2106 Padavine (mm) 0 mm 23.3.2019 11:00 Rain-O-Matic
2105 Relativna vlaga 2 m (% RH) 52,03 % RH 23.3.2019 11:00 50YA
2104 Temperatura 2 m (°C) 11,71 °C 23.3.2019 11:00 50YA

Pregled podatkov zadnjih 24 ur

Zap.
št.
Datum in čas Lendava
Omočenost
lista
Padavine Relativna
vlaga
2
m
Temperatura
2
m
1 23.3.2019 11:00
2 23.3.2019 10:30
3 23.3.2019 10:00 0 0 52 11,7
4 23.3.2019 09:30 0 0 55,3 9,9
5 23.3.2019 09:00 0 0 60 8,1
6 23.3.2019 08:30 0 0 60,4 7,2
7 23.3.2019 08:00 1 0 61,4 6,3
8 23.3.2019 07:30 2 0 65,5 4,9
9 23.3.2019 07:00 5 0 68,5 4,1
10 23.3.2019 06:30 9 0 70,7 3,6
11 23.3.2019 06:00 10 0 73,1 3,2
12 23.3.2019 05:30 10 0 71,8 3,5
13 23.3.2019 05:00 8 0 68,6 4,3
14 23.3.2019 04:30 4 0 65,3 5,1
15 23.3.2019 04:00 3 0 61 6
16 23.3.2019 03:30 5 0 65,2 5,1
17 23.3.2019 03:00 4 0 65,2 5,2
18 23.3.2019 02:30 3 0 62,5 5,7
19 23.3.2019 02:00 1 0 50,7 8
20 23.3.2019 01:30 1 0 49 8,2
21 23.3.2019 01:00 1 0 51,6 7,9
22 23.3.2019 00:30 1 0 47,7 9,1
23 23.3.2019 00:00 0 0 34,8 11,7
24 22.3.2019 23:30 0 0 34,7 11,6
25 22.3.2019 23:00 1 0 43,4 9,5
26 22.3.2019 22:30 1 0 42,8 10,2
27 22.3.2019 22:00 0 0 37 11,8
28 22.3.2019 21:30 0 0 34 12,4
29 22.3.2019 21:00 0 0 30,4 12,9
30 22.3.2019 20:30 0 0 29,2 12,9
31 22.3.2019 20:00 0 0 28,5 13,2
32 22.3.2019 19:30 0 0 28,9 13,4
33 22.3.2019 19:00 0 0 29,5 13,6
34 22.3.2019 18:30 0 0 30,5 13,7
35 22.3.2019 18:00 0 0 29,4 14,9
36 22.3.2019 17:30 0 0 27,2 16,1
37 22.3.2019 17:00 0 0 26 16,3
38 22.3.2019 16:30 0 0 25,9 16,7
39 22.3.2019 16:00 0 0 25,3 16,4
40 22.3.2019 15:30 0 0 24,9 16,6
41 22.3.2019 15:00 0 0 28,8 16
42 22.3.2019 14:30 0 0 29,6 15,6
43 22.3.2019 14:00 0 0 29,4 15,3
44 22.3.2019 13:30 0 0 31 14,9
45 22.3.2019 13:00 0 0 31,6 14,3
46 22.3.2019 12:30 0 0 35,5 13,8
47 22.3.2019 12:00 0 0 36,2 13,2
48 22.3.2019 11:30 0 0 41,5 12,2
© 2011 Ministrstvo za kmetijstvo, gozdarstvo in prehrano. Vse pravice pridržane.